Wetterdaten: Woche 06.09.10 - 12.09.10 (KW36)
Datum Zeit Temp. A. Feuchte A. Luftdruck Regen Wind Richtung Taupunkt Windchill Windben
06.09.2010 00:00 11,4 C 87 % 1015,6 hPa 0,0 l/m 0,0 km/h O 9,3 C 11,4 C 0,0 km/h
06.09.2010 01:00 10,7 C 88 % 1015,8 hPa 0,0 l/m 0,0 km/h N-NO 8,8 C 10,7 C 0,0 km/h
06.09.2010 02:00 10,1 C 88 % 1015,4 hPa 0,0 l/m 2,6 km/h S-SO 8,2 C 10,1 C 1,4 km/h
06.09.2010 03:00 8,5 C 89 % 1015,1 hPa 0,0 l/m 0,0 km/h O-NO 6,8 C 8,5 C 0,0 km/h
06.09.2010 04:00 7,8 C 89 % 1014,8 hPa 0,0 l/m 0,0 km/h SO 6,1 C 7,8 C 0,0 km/h
06.09.2010 05:00 7,0 C 90 % 1014,5 hPa 0,0 l/m 0,0 km/h SW 5,5 C 7,0 C 0,0 km/h
06.09.2010 06:00 7,2 C 90 % 1014,6 hPa 0,0 l/m 0,0 km/h S-SO 5,7 C 7,2 C 0,0 km/h
06.09.2010 07:00 7,1 C 90 % 1014,5 hPa 0,0 l/m 1,3 km/h W-SW 5,6 C 7,1 C 0,7 km/h
06.09.2010 08:00 9,2 C 90 % 1014,1 hPa 0,0 l/m 2,6 km/h W 7,6 C 9,2 C 1,4 km/h
06.09.2010 09:00 16,4 C 79 % 1014,0 hPa 0,0 l/m 0,6 km/h NW 12,7 C 16,4 C 0,4 km/h
06.09.2010 10:00 19,9 C 62 % 1013,6 hPa 0,0 l/m 0,6 km/h W-NW 12,4 C 19,9 C 0,4 km/h
06.09.2010 11:00 24,4 C 50 % 1012,9 hPa 0,0 l/m 2,6 km/h W 13,3 C 24,4 C 1,4 km/h
06.09.2010 12:00 26,4 C 38 % 1012,3 hPa 0,0 l/m 0,0 km/h SO 10,9 C 26,4 C 0,0 km/h
06.09.2010 13:00 26,8 C 32 % 1011,7 hPa 0,0 l/m 1,9 km/h N-NO 8,7 C 26,8 C 1,1 km/h
06.09.2010 14:00 27,2 C 31 % 1010,7 hPa 0,0 l/m 1,3 km/h SO 8,6 C 27,2 C 0,7 km/h
06.09.2010 15:00 27,8 C 30 % 1009,8 hPa 0,0 l/m 1,9 km/h S-SO 8,6 C 27,8 C 1,1 km/h
06.09.2010 16:00 24,2 C 37 % 1009,5 hPa 0,0 l/m 15,6 km/h SO 8,6 C 22,2 C 8,6 km/h
06.09.2010 17:00 22,0 C 42 % 1009,2 hPa 0,0 l/m 11,7 km/h S-SO 8,5 C 20,4 C 6,5 km/h
06.09.2010 18:00 20,6 C 46 % 1009,0 hPa 0,0 l/m 4,5 km/h SO 8,6 C 20,6 C 2,5 km/h
06.09.2010 19:00 18,6 C 52 % 1008,9 hPa 0,0 l/m 0,0 km/h SO 8,5 C 18,6 C 0,0 km/h
06.09.2010 20:00 18,1 C 50 % 1009,4 hPa 0,0 l/m 24,0 km/h SO 7,5 C 13,0 C 13,3 km/h
06.09.2010 21:00 17,7 C 54 % 1009,5 hPa 0,0 l/m 22,0 km/h N-NO 8,3 C 12,8 C 12,2 km/h
06.09.2010 22:00 14,1 C 76 % 1008,2 hPa 0,0 l/m 5,2 km/h W 9,9 C 14,1 C 2,9 km/h
06.09.2010 23:00 13,7 C 83 % 1008,4 hPa 0,4 l/m 0,0 km/h N 10,9 C 13,7 C 0,0 km/h
07.09.2010 00:00 13,8 C 83 % 1007,9 hPa 0,0 l/m 0,0 km/h SO 11,0 C 13,8 C 0,0 km/h
07.09.2010 01:00 13,6 C 85 % 1006,9 hPa 0,0 l/m 7,8 km/h N-NW 11,1 C 12,7 C 4,3 km/h
07.09.2010 02:00 13,5 C 86 % 1007,2 hPa 0,0 l/m 0,0 km/h SO 11,2 C 13,5 C 0,0 km/h
07.09.2010 03:00 13,2 C 88 % 1005,8 hPa 0,4 l/m 1,9 km/h O-SO 11,3 C 13,2 C 1,1 km/h
07.09.2010 04:00 12,9 C 88 % 1005,1 hPa 0,4 l/m 0,0 km/h W-SW 11,0 C 12,9 C 0,0 km/h
07.09.2010 05:00 13,1 C 90 % 1004,9 hPa 0,0 l/m 1,3 km/h SO 11,5 C 13,1 C 0,7 km/h
07.09.2010 06:00 13,1 C 90 % 1004,8 hPa 0,0 l/m 0,0 km/h S-SO 11,5 C 13,1 C 0,0 km/h
07.09.2010 07:00 13,2 C 90 % 1005,3 hPa 0,0 l/m 0,0 km/h O 11,6 C 13,2 C 0,0 km/h
07.09.2010 08:00 13,4 C 90 % 1005,4 hPa 1,1 l/m 0,0 km/h O-SO 11,8 C 13,4 C 0,0 km/h
07.09.2010 09:00 14,4 C 90 % 1004,8 hPa 0,7 l/m 0,0 km/h W-NW 12,8 C 14,4 C 0,0 km/h
07.09.2010 10:00 15,4 C 89 % 1005,3 hPa 0,4 l/m 0,0 km/h N-NW 13,6 C 15,4 C 0,0 km/h
07.09.2010 11:00 16,8 C 86 % 1005,1 hPa 0,0 l/m 2,6 km/h S-SW 14,4 C 16,8 C 1,4 km/h
07.09.2010 12:00 18,6 C 82 % 1004,9 hPa 0,0 l/m 0,0 km/h N-NO 15,5 C 18,6 C 0,0 km/h
07.09.2010 13:00 20,5 C 76 % 1004,2 hPa 0,0 l/m 0,0 km/h N 16,1 C 20,5 C 0,0 km/h
07.09.2010 14:00 22,4 C 72 % 1003,8 hPa 0,0 l/m 4,5 km/h NW 17,1 C 22,4 C 2,5 km/h
07.09.2010 15:00 21,2 C 73 % 1003,6 hPa 0,0 l/m 0,0 km/h W-NW 16,2 C 21,2 C 0,0 km/h
07.09.2010 16:00 20,3 C 76 % 1003,4 hPa 0,4 l/m 0,0 km/h N-NO 15,9 C 20,3 C 0,0 km/h
07.09.2010 17:00 18,3 C 85 % 1002,8 hPa 0,7 l/m 0,0 km/h S-SW 15,7 C 18,3 C 0,0 km/h
07.09.2010 18:00 17,8 C 89 % 1002,8 hPa 0,7 l/m 0,0 km/h N-NW 16,0 C 17,8 C 0,0 km/h
07.09.2010 19:00 17,4 C 89 % 1002,2 hPa 0,4 l/m 0,0 km/h SO 15,6 C 17,4 C 0,0 km/h
07.09.2010 20:00 16,8 C 90 % 1002,3 hPa 0,4 l/m 0,0 km/h NO 15,1 C 16,8 C 0,0 km/h
07.09.2010 21:00 16,3 C 91 % 1002,4 hPa 0,4 l/m 0,0 km/h W 14,8 C 16,3 C 0,0 km/h
07.09.2010 22:00 16,3 C 91 % 1003,1 hPa 0,0 l/m 0,0 km/h NO 14,8 C 16,3 C 0,0 km/h
07.09.2010 23:00 16,1 C 91 % 1002,5 hPa 0,4 l/m 0,0 km/h O-SO 14,6 C 16,1 C 0,0 km/h
08.09.2010 00:00 15,6 C 91 % 1001,7 hPa 0,0 l/m 0,0 km/h O-SO 14,1 C 15,6 C 0,0 km/h
08.09.2010 01:00 14,8 C 92 % 1001,2 hPa 0,0 l/m 0,0 km/h NO 13,5 C 14,8 C 0,0 km/h
08.09.2010 02:00 14,5 C 92 % 1001,7 hPa 0,0 l/m 0,0 km/h O-NO 13,2 C 14,5 C 0,0 km/h
08.09.2010 03:00 14,2 C 91 % 1001,0 hPa 0,0 l/m 0,0 km/h SO 12,8 C 14,2 C 0,0 km/h
08.09.2010 04:00 13,9 C 92 % 1001,1 hPa 0,0 l/m 0,0 km/h O-NO 12,6 C 13,9 C 0,0 km/h
08.09.2010 05:00 13,4 C 92 % 1000,6 hPa 0,0 l/m 0,0 km/h SO 12,1 C 13,4 C 0,0 km/h
08.09.2010 06:00 13,8 C 92 % 1001,4 hPa 0,0 l/m 0,0 km/h SO 12,5 C 13,8 C 0,0 km/h
08.09.2010 07:00 13,9 C 92 % 1001,9 hPa 0,0 l/m 0,0 km/h O-SO 12,6 C 13,9 C 0,0 km/h
08.09.2010 08:00 14,3 C 92 % 1002,8 hPa 0,4 l/m 0,0 km/h NO 13,0 C 14,3 C 0,0 km/h
08.09.2010 09:00 14,9 C 92 % 1002,4 hPa 2,1 l/m 0,0 km/h O-SO 13,6 C 14,9 C 0,0 km/h
08.09.2010 10:00 15,9 C 91 % 1003,0 hPa 0,4 l/m 4,5 km/h SO 14,4 C 15,9 C 2,5 km/h
08.09.2010 11:00 16,4 C 87 % 1003,4 hPa 0,4 l/m 11,7 km/h S-SO 14,2 C 14,0 C 6,5 km/h
08.09.2010 12:00 19,8 C 76 % 1003,6 hPa 0,0 l/m 5,2 km/h S-SO 15,4 C 19,8 C 2,9 km/h
08.09.2010 13:00 20,6 C 73 % 1004,1 hPa 0,0 l/m 3,2 km/h W 15,6 C 20,6 C 1,8 km/h
08.09.2010 14:00 20,1 C 68 % 1004,4 hPa 0,0 l/m 7,1 km/h S 14,0 C 19,8 C 4,0 km/h
08.09.2010 15:00 23,7 C 53 % 1004,7 hPa 0,0 l/m 14,9 km/h W-SW 13,5 C 21,7 C 8,3 km/h
08.09.2010 16:00 20,0 C 60 % 1005,5 hPa 0,0 l/m 9,1 km/h W-SW 12,0 C 18,9 C 5,0 km/h
08.09.2010 17:00 17,8 C 63 % 1006,6 hPa 0,0 l/m 5,2 km/h W-SW 10,7 C 17,8 C 2,9 km/h
08.09.2010 18:00 20,9 C 56 % 1007,1 hPa 0,0 l/m 22,7 km/h W-SW 11,8 C 16,9 C 12,6 km/h
08.09.2010 19:00 16,2 C 66 % 1007,7 hPa 0,0 l/m 29,8 km/h SW 9,8 C 9,4 C 16,6 km/h
08.09.2010 20:00 15,3 C 69 % 1008,8 hPa 0,0 l/m 30,5 km/h SW 9,6 C 8,0 C 16,9 km/h
08.09.2010 21:00 14,9 C 72 % 1009,8 hPa 0,0 l/m 16,8 km/h SW 9,9 C 10,5 C 9,4 km/h
08.09.2010 22:00 14,9 C 72 % 1010,2 hPa 0,0 l/m 20,7 km/h W-SW 9,9 C 9,4 C 11,5 km/h
08.09.2010 23:00 14,5 C 75 % 1010,1 hPa 0,0 l/m 17,5 km/h S-SW 10,1 C 9,8 C 9,7 km/h
09.09.2010 00:00 14,4 C 76 % 1010,5 hPa 0,0 l/m 21,4 km/h S-SW 10,2 C 8,6 C 11,9 km/h
09.09.2010 01:00 13,9 C 80 % 1011,0 hPa 0,0 l/m 21,4 km/h S-SW 10,5 C 8,0 C 11,9 km/h
09.09.2010 02:00 13,7 C 82 % 1011,0 hPa 0,0 l/m 15,6 km/h S 10,7 C 9,4 C 8,6 km/h
09.09.2010 03:00 13,9 C 82 % 1011,0 hPa 0,0 l/m 20,7 km/h S 10,9 C 8,1 C 11,5 km/h
09.09.2010 04:00 14,2 C 80 % 1011,4 hPa 0,0 l/m 14,9 km/h S-SO 10,8 C 10,3 C 8,3 km/h
09.09.2010 05:00 12,7 C 87 % 1011,6 hPa 0,0 l/m 22,0 km/h N-NO 10,6 C 6,2 C 12,2 km/h
09.09.2010 06:00 12,3 C 89 % 1011,9 hPa 0,4 l/m 0,0 km/h N 10,5 C 12,3 C 0,0 km/h
09.09.2010 07:00 11,8 C 90 % 1012,1 hPa 0,0 l/m 0,0 km/h O-NO 10,2 C 11,8 C 0,0 km/h
09.09.2010 08:00 12,4 C 90 % 1012,9 hPa 0,0 l/m 0,0 km/h SW 10,8 C 12,4 C 0,0 km/h
09.09.2010 09:00 19,2 C 72 % 1013,4 hPa 0,0 l/m 11,0 km/h S-SW 14,0 C 17,4 C 6,1 km/h
09.09.2010 10:00 18,1 C 69 % 1014,3 hPa 0,0 l/m 4,5 km/h SW 12,3 C 18,1 C 2,5 km/h
09.09.2010 11:00 21,4 C 65 % 1014,9 hPa 0,0 l/m 25,3 km/h SW 14,5 C 17,2 C 14,0 km/h
09.09.2010 12:00 20,8 C 65 % 1015,1 hPa 0,0 l/m 20,7 km/h W-SW 14,0 C 17,1 C 11,5 km/h
09.09.2010 13:00 21,2 C 60 % 1015,0 hPa 0,0 l/m 14,3 km/h W-SW 13,1 C 18,9 C 7,9 km/h
09.09.2010 14:00 19,6 C 65 % 1015,5 hPa 0,4 l/m 6,5 km/h O-NO 12,8 C 19,6 C 3,6 km/h
09.09.2010 15:00 22,3 C 59 % 1015,4 hPa 0,0 l/m 0,0 km/h S-SO 13,9 C 22,3 C 0,0 km/h
09.09.2010 16:00 21,3 C 53 % 1015,5 hPa 0,0 l/m 0,0 km/h S 11,3 C 21,3 C 0,0 km/h
09.09.2010 17:00 16,8 C 73 % 1015,9 hPa 0,0 l/m 4,5 km/h N 11,9 C 16,8 C 2,5 km/h
09.09.2010 18:00 17,3 C 72 % 1016,4 hPa 0,0 l/m 0,0 km/h S-SO 12,2 C 17,3 C 0,0 km/h
09.09.2010 19:00 15,0 C 81 % 1017,6 hPa 0,0 l/m 4,5 km/h NO 11,8 C 15,0 C 2,5 km/h
09.09.2010 20:00 13,2 C 87 % 1017,9 hPa 0,0 l/m 0,0 km/h SO 11,1 C 13,2 C 0,0 km/h
09.09.2010 21:00 12,6 C 89 % 1018,7 hPa 0,0 l/m 0,6 km/h O-SO 10,8 C 12,6 C 0,4 km/h
09.09.2010 22:00 12,5 C 89 % 1019,2 hPa 0,0 l/m 0,0 km/h SO 10,7 C 12,5 C 0,0 km/h
09.09.2010 23:00 11,3 C 90 % 1019,5 hPa 0,0 l/m 0,0 km/h O-SO 9,7 C 11,3 C 0,0 km/h
10.09.2010 00:00 11,1 C 91 % 1020,0 hPa 0,0 l/m 0,0 km/h O-SO 9,7 C 11,1 C 0,0 km/h
10.09.2010 01:00 11,5 C 91 % 1020,0 hPa 0,0 l/m 0,0 km/h SO 10,1 C 11,5 C 0,0 km/h
10.09.2010 02:00 11,4 C 91 % 1020,1 hPa 0,0 l/m 0,0 km/h O 10,0 C 11,4 C 0,0 km/h
10.09.2010 03:00 11,3 C 91 % 1020,3 hPa 0,0 l/m 0,0 km/h SO 9,9 C 11,3 C 0,0 km/h
10.09.2010 04:00 11,8 C 91 % 1020,3 hPa 0,0 l/m 0,0 km/h O 10,4 C 11,8 C 0,0 km/h
10.09.2010 05:00 11,8 C 91 % 1020,4 hPa 0,0 l/m 0,0 km/h O-NO 10,4 C 11,8 C 0,0 km/h
10.09.2010 06:00 10,7 C 91 % 1020,5 hPa 0,0 l/m 0,0 km/h O-SO 9,3 C 10,7 C 0,0 km/h
10.09.2010 07:00 10,6 C 91 % 1021,2 hPa 0,0 l/m 0,0 km/h SO 9,2 C 10,6 C 0,0 km/h
10.09.2010 08:00 13,8 C 91 % 1021,4 hPa 0,0 l/m 5,2 km/h SO 12,4 C 13,8 C 2,9 km/h
10.09.2010 09:00 19,8 C 74 % 1021,6 hPa 0,0 l/m 5,2 km/h W-SW 15,0 C 19,8 C 2,9 km/h
10.09.2010 10:00 21,8 C 63 % 1021,7 hPa 0,0 l/m 2,6 km/h SW 14,4 C 21,8 C 1,4 km/h
10.09.2010 11:00 25,7 C 54 % 1021,5 hPa 0,0 l/m 0,0 km/h S-SW 15,7 C 25,7 C 0,0 km/h
10.09.2010 12:00 23,9 C 53 % 1021,1 hPa 0,0 l/m 0,0 km/h W-SW 13,7 C 23,9 C 0,0 km/h
10.09.2010 13:00 26,3 C 49 % 1021,1 hPa 0,0 l/m 0,0 km/h N 14,7 C 26,3 C 0,0 km/h
10.09.2010 14:00 25,4 C 45 % 1020,7 hPa 0,0 l/m 0,0 km/h N-NW 12,6 C 25,4 C 0,0 km/h
10.09.2010 15:00 23,5 C 49 % 1020,3 hPa 0,0 l/m 0,0 km/h W-SW 12,2 C 23,5 C 0,0 km/h
10.09.2010 16:00 28,5 C 38 % 1020,0 hPa 0,0 l/m 0,0 km/h NW 12,8 C 28,5 C 0,0 km/h
10.09.2010 17:00 23,9 C 48 % 1019,8 hPa 0,0 l/m 0,0 km/h NW 12,2 C 23,9 C 0,0 km/h
10.09.2010 18:00 27,7 C 42 % 1019,6 hPa 0,0 l/m 0,0 km/h N-NW 13,6 C 27,7 C 0,0 km/h
10.09.2010 19:00 22,8 C 53 % 1020,0 hPa 0,0 l/m 0,0 km/h O-NO 12,7 C 22,8 C 0,0 km/h
10.09.2010 20:00 14,9 C 76 % 1020,1 hPa 0,0 l/m 0,0 km/h O-NO 10,7 C 14,9 C 0,0 km/h
10.09.2010 21:00 13,8 C 83 % 1020,7 hPa 0,0 l/m 0,0 km/h SO 11,0 C 13,8 C 0,0 km/h
10.09.2010 22:00 13,1 C 86 % 1020,9 hPa 0,0 l/m 0,0 km/h O 10,8 C 13,1 C 0,0 km/h
10.09.2010 23:00 12,4 C 87 % 1020,8 hPa 0,0 l/m 0,0 km/h O-SO 10,3 C 12,4 C 0,0 km/h
11.09.2010 00:00 11,7 C 88 % 1020,7 hPa 0,0 l/m 0,0 km/h O-SO 9,8 C 11,7 C 0,0 km/h
11.09.2010 01:00 11,2 C 89 % 1020,3 hPa 0,0 l/m 0,0 km/h SO 9,5 C 11,2 C 0,0 km/h
11.09.2010 02:00 10,9 C 90 % 1020,0 hPa 0,0 l/m 0,0 km/h O-NO 9,3 C 10,9 C 0,0 km/h
11.09.2010 03:00 10,4 C 90 % 1019,9 hPa 0,0 l/m 0,0 km/h NO 8,8 C 10,4 C 0,0 km/h
11.09.2010 04:00 10,2 C 90 % 1019,5 hPa 0,0 l/m 0,0 km/h SO 8,6 C 10,2 C 0,0 km/h
11.09.2010 05:00 9,6 C 91 % 1019,6 hPa 0,0 l/m 0,0 km/h NO 8,2 C 9,6 C 0,0 km/h
11.09.2010 06:00 9,6 C 91 % 1019,2 hPa 0,0 l/m 0,0 km/h N-NO 8,2 C 9,6 C 0,0 km/h
11.09.2010 07:00 9,4 C 91 % 1019,3 hPa 0,0 l/m 0,0 km/h N-NO 8,0 C 9,4 C 0,0 km/h
11.09.2010 08:00 11,0 C 91 % 1019,3 hPa 0,0 l/m 0,0 km/h S-SW 9,6 C 11,0 C 0,0 km/h
11.09.2010 09:00 19,4 C 73 % 1019,3 hPa 0,0 l/m 0,0 km/h W 14,4 C 19,4 C 0,0 km/h
11.09.2010 10:00 21,3 C 64 % 1019,4 hPa 0,0 l/m 0,0 km/h W 14,2 C 21,3 C 0,0 km/h
11.09.2010 11:00 24,1 C 56 % 1019,3 hPa 0,0 l/m 0,0 km/h NW 14,8 C 24,1 C 0,0 km/h
11.09.2010 12:00 25,1 C 56 % 1018,8 hPa 0,0 l/m 0,0 km/h W 15,7 C 25,1 C 0,0 km/h
11.09.2010 13:00 25,8 C 53 % 1018,4 hPa 0,0 l/m 0,0 km/h S 15,5 C 25,8 C 0,0 km/h
11.09.2010 14:00 26,4 C 50 % 1017,8 hPa 0,0 l/m 2,6 km/h W 15,1 C 26,4 C 1,4 km/h
11.09.2010 15:00 28,8 C 45 % 1017,4 hPa 0,0 l/m 0,0 km/h W-SW 15,7 C 28,8 C 0,0 km/h
11.09.2010 16:00 30,6 C 42 % 1016,8 hPa 0,0 l/m 0,0 km/h NW 16,2 C 30,6 C 0,0 km/h
11.09.2010 17:00 30,4 C 43 % 1016,4 hPa 0,0 l/m 3,9 km/h NW 16,4 C 30,4 C 2,2 km/h
11.09.2010 18:00 30,4 C 43 % 1016,1 hPa 0,0 l/m 0,0 km/h W-NW 16,4 C 30,4 C 0,0 km/h
11.09.2010 19:00 23,9 C 56 % 1016,1 hPa 0,0 l/m 0,0 km/h NW 14,6 C 23,9 C 0,0 km/h
11.09.2010 20:00 17,6 C 80 % 1016,7 hPa 0,0 l/m 0,0 km/h O 14,1 C 17,6 C 0,0 km/h
11.09.2010 21:00 16,0 C 84 % 1017,0 hPa 0,0 l/m 0,0 km/h SO 13,3 C 16,0 C 0,0 km/h
11.09.2010 22:00 14,4 C 86 % 1017,2 hPa 0,0 l/m 0,0 km/h SO 12,1 C 14,4 C 0,0 km/h
11.09.2010 23:00 13,6 C 87 % 1017,2 hPa 0,0 l/m 0,0 km/h SO 11,5 C 13,6 C 0,0 km/h
12.09.2010 00:00 13,3 C 88 % 1016,9 hPa 0,0 l/m 0,0 km/h N-NO 11,4 C 13,3 C 0,0 km/h
12.09.2010 01:00 12,9 C 88 % 1016,7 hPa 0,0 l/m 0,0 km/h N-NO 11,0 C 12,9 C 0,0 km/h
12.09.2010 02:00 12,5 C 88 % 1016,8 hPa 0,0 l/m 0,0 km/h O-SO 10,6 C 12,5 C 0,0 km/h
12.09.2010 03:00 12,1 C 88 % 1016,5 hPa 0,0 l/m 0,0 km/h NO 10,2 C 12,1 C 0,0 km/h
12.09.2010 04:00 10,7 C 89 % 1016,9 hPa 0,0 l/m 0,0 km/h NO 9,0 C 10,7 C 0,0 km/h
12.09.2010 05:00 10,4 C 90 % 1016,8 hPa 0,0 l/m 0,0 km/h NO 8,8 C 10,4 C 0,0 km/h
12.09.2010 06:00 10,1 C 90 % 1016,8 hPa 0,0 l/m 0,0 km/h N-NO 8,5 C 10,1 C 0,0 km/h
12.09.2010 07:00 10,1 C 91 % 1016,9 hPa 0,0 l/m 0,0 km/h SO 8,7 C 10,1 C 0,0 km/h
12.09.2010 08:00 12,5 C 91 % 1017,0 hPa 0,0 l/m 0,0 km/h SO 11,1 C 12,5 C 0,0 km/h
12.09.2010 09:00 17,3 C 80 % 1017,0 hPa 0,0 l/m 7,1 km/h W 13,8 C 17,0 C 4,0 km/h
12.09.2010 10:00 21,8 C 64 % 1017,4 hPa 0,0 l/m 0,0 km/h N 14,7 C 21,8 C 0,0 km/h
12.09.2010 11:00 23,5 C 56 % 1017,4 hPa 0,0 l/m 0,0 km/h W 14,2 C 23,5 C 0,0 km/h
12.09.2010 12:00 26,3 C 52 % 1017,1 hPa 0,0 l/m 5,2 km/h W 15,6 C 26,3 C 2,9 km/h
12.09.2010 13:00 26,4 C 51 % 1016,9 hPa 0,0 l/m 8,4 km/h W 15,4 C 26,0 C 4,7 km/h
12.09.2010 14:00 26,4 C 50 % 1016,3 hPa 0,0 l/m 1,9 km/h SW 15,1 C 26,4 C 1,1 km/h
12.09.2010 15:00 29,3 C 40 % 1016,5 hPa 0,0 l/m 9,1 km/h SW 14,3 C 29,0 C 5,0 km/h
12.09.2010 16:00 31,8 C 37 % 1015,9 hPa 0,0 l/m 7,1 km/h W 15,3 C 31,8 C 4,0 km/h
12.09.2010 17:00 29,6 C 40 % 1015,9 hPa 0,0 l/m 1,3 km/h W 14,5 C 29,6 C 0,7 km/h
12.09.2010 18:00 26,9 C 49 % 1015,5 hPa 0,0 l/m 0,0 km/h O-SO 15,3 C 26,9 C 0,0 km/h
12.09.2010 19:00 20,8 C 67 % 1015,2 hPa 0,0 l/m 0,0 km/h N-NW 14,4 C 20,8 C 0,0 km/h
12.09.2010 20:00 15,8 C 84 % 1018,3 hPa 2,1 l/m 64,2 km/h SW 13,1 C 5,8 C 35,6 km/h
12.09.2010 21:00 14,1 C 87 % 1020,6 hPa 2,1 l/m 0,0 km/h S-SO 12,0 C 14,1 C 0,0 km/h
12.09.2010 22:00 13,8 C 88 % 1021,2 hPa 2,8 l/m 2,6 km/h NO 11,8 C 13,8 C 1,4 km/h
12.09.2010 23:00 13,4 C 89 % 1021,0 hPa 1,1 l/m 0,0 km/h S-SW 11,6 C 13,4 C 0,0 km/h
Min-Datum _ 06.09.10 06.09.10 08.09.10 - 06.09.10 - 06.09.10 12.09.10 06.09.10
_ Min-Zeit 05:30 15:30 05:30 - 00:30 - 05:30 20:30 00:30
Minimum _ 7,0 C 30 % 1000,6 hPa - 0,0 km/h - 5,5 C 5,8 C 0,0 km/h
Max-Datum _ 12.09.10 08.09.10 10.09.10 12.09.10 12.09.10 - 07.09.10 12.09.10 12.09.10
_ Max-Zeit 16:30 01:30 10:30 22:30 20:30 - 14:30 16:30 20:30
Maximum _ 31,8 C 92 % 1021,7 hPa 2,8 l/m 64,2 km/h
SW
- 17,1 C 31,8 C 35,6 km/h
SW
Durchschnitt _ 17,1 C 75 % 1013,1 hPa #18,5 l/m 3,9 km/h SO 11,9 C 16,5 C 2,1 km/h